AirNav   Phillips 66 Aviation Fuel
 
 975 users online  

6GA0 Stoney Point Airfield
Cumming, Georgia, USA

GOING TO CUMMING?


FAA INFORMATION EFFECTIVE 20 JULY 2017

Location

FAA Identifier: 6GA0
Lat/Long: 34-07-57.3520N / 084-11-57.7050W
34-07.955867N / 084-11.961750W
34.1325978 / -84.1993625
(estimated)
Elevation: 1150 ft. / 351 m (estimated)
Variation: 02W (1985)
From city: 5 miles SW of CUMMING, GA
Time zone: UTC -4 (UTC -5 during Standard Time)
Zip code: 30041

Airport Operations

Airport use: Private use. Permission required prior to landing
Activation date: 09/1979
Control tower: no
ARTCC: ATLANTA CENTER
FSS: MACON FLIGHT SERVICE STATION
Attendance: CONTINUOUS
Wind indicator: yes
Segmented circle: no
Lights: ACTVT MIRL RY 15/33 AND VASI RY 15/33 - 122.725
Beacon: white-green (lighted land airport)
ACTVT BEACON - 122.725

Airport Communications

WX AWOS-3 at LZU (15 nm SE): PHONE 770-339-7753
WX AWOS-3 at CNI (15 nm NW): 119.825 (770-704-6235)
WX ASOS at PDK (16 nm S): PHONE 770-457-1691

Nearby radio navigation aids

VOR radial/distance  VOR name  Freq  Var
PDKr023/16.2PEACHTREE VOR/DME116.6005W
ATLr026/32.4ATLANTA VORTAC116.9005W

 
NDB name  Hdg/Dist  Freq  Var  ID
FLOWERY BRANCH257/15.236503WFKV ..-. -.- ...-
CHERO122/16.041505WDJD -.. .--- -..
CARTERSVILLE101/32.230804WEVZ . ...- --..
BARROW COUNTY296/32.640405WBMW -... -- .--
MONROE318/33.439203WJNM .--- -. --
COMMERCE283/34.024406WDDA -.. -.. .-
ALCOVY328/36.637003WVOF ...- --- ..-.
CALHOUN119/39.532305WOUK --- ..- -.-

Airport Services

Runway Information

Runway 15/33

Dimensions: 2500 x 100 ft. / 762 x 30 m
Surface: turf
Runway edge lights: medium intensity
RUNWAY 15  RUNWAY 33
Traffic pattern: leftleft

Airport Ownership and Management from official FAA records

Ownership: Privately-owned
Owner: STONEY POINT HOMEOWNERS ASSOC.
2144 STONEY POINT RD
CUMMING, GA 30041
Phone 404-787-7472
Manager: JOHN BERNDSEN
2144 STONEY POINT RD
CUMMING, GA 30041
Phone 404-787-7472

Airport Operational Statistics

Aircraft based on the field: 24
Single engine airplanes: 20
Multi engine airplanes: 1
Gliders airplanes: 1
Ultralights: 2
    

Additional Remarks

HANG GLIDER ACTIVITIES INVOF ARPT.

Instrument Procedures

There are no published instrument procedures at 6GA0.

Some nearby airports with instrument procedures:

KLZU - Gwinnett County Airport-Briscoe Field (15 nm SE)
KCNI - Cherokee County Airport (15 nm NW)
KPDK - Dekalb-Peachtree Airport (16 nm S)
KGVL - Lee Gilmer Memorial Airport (20 nm NE)
KMGE - Dobbins Air Reserve Base (20 nm SW)
 
Loc | Ops | Rwys | IFR | FBO | Links
Com | Nav | Svcs | Stats | Notes


 
Area around 6GA0 (Stoney Point Airfield)
 
Road maps at: MapQuest Bing Google
 
Aerial photo
WARNING: Photo may not be current or correct
Aerial photo of 6GA0 (Stoney Point Airfield)
Photo by AirNav, LLC
Photo taken 18-Oct-2010
looking south.

Do you have a better or more recent aerial photo of Stoney Point Airfield that you would like to share? If so, please send us your photo.

 
Sectional chart

 
Airport distance calculator
Flying to Stoney Point Airfield? Find the distance to fly.

From to 6GA0

Sunrise and sunset
Times for 22-Jul-2017
 Local
(UTC-4)
 Zulu
(UTC)
Morning civil twilight06:1410:14
Sunrise06:4210:42
Sunset20:4500:45
Evening civil twilight21:1301:13

Current date and time
Zulu (UTC)  22-Jul-2017 21:44:14
Local (UTC-4)  22-Jul-2017 17:44:14
 
METAR
KLZU 
15nm SE 
222045Z 26010KT 5SM TSRABR BKN035 23/21 A2999 RMK ATIS T RWY 25 LL
KCNI 
15nm NW 
222115Z AUTO 23006KT 10SM CLR 31/22 A2999 RMK AO2
KPDK 
16nm S 
222053Z AUTO 24004KT 7SM CLR 30/20 A2998 RMK AO2 LTG DSNT NE AND E AND SW SLP130 T03000200 58013
KGVL 
20nm NE 
222053Z AUTO 23011G22KT 10SM TS BKN047 BKN065 27/22 A3000 RMK AO2 LTG DSNT S AND SW TSB36 SLP143 T02720217 56017
KMGE 
20nm SW 
222058Z 00000KT 10SM FEW035 FEW100 BKN250 24/21 A2998 RMK AO2A SLP144 60009 T02440214 57013 $
KRYY 
21nm W 
222047Z 23005KT 10SM SCT100 25/24 A3000
KJZP 
23nm NW 
222115Z AUTO 23003KT 10SM CLR 32/22 A3003 RMK AO2 LTG DSNT NE T03210221
KFTY 
26nm SW 
222053Z 27003KT 10SM CLR 27/23 A2997 RMK AO2 LTG DSNT ALQDS TSE11 SLP139 T02670228 58012
KWDR 
28nm E 
222115Z AUTO 00000KT VCTS CLR 33/21 A2998 RMK AO1 LTG DSNT NW
TAF
KPDK 
16nm S 
221735Z 2218/2318 23006KT P6SM VCSH BKN035 TEMPO 2218/2220 VRB15G25KT 3SM TSRA BKN035CB FM222000 21007KT P6SM VCSH BKN045 FM230100 00000KT P6SM FEW060 SCT250 FM231100 00000KT P6SM FEW015 FM231500 25005KT P6SM VCSH SCT035
NOTAMs
Click for the latest NOTAMs
NOTAMs are issued by the DoD/FAA and will open in a separate window not controlled by AirNav.

 

 
 

Would you like to see your business listed on this page?

 If your business provides an interesting product or service to pilots, flight crews, aircraft, or users of the Stoney Point Airfield, you should consider listing it here.  To start the listing process, click on the button below
 
Add a business
 

Other Pages about Stoney Point Airfield

www.sphoa.com
 
Update a link
 
Copyright © AirNav, LLC. All rights reserved. Privacy Policy  Contact